createdAt,value
2023-02-25T00:00:01.367Z,1.1
2023-02-25T00:01:00.580Z,1.1
2023-02-25T00:02:04.159Z,1.1
2023-02-25T00:03:00.617Z,1.1
2023-02-25T00:04:00.574Z,1.1
2023-02-25T00:05:00.566Z,1.1
2023-02-25T00:06:00.568Z,1.1
2023-02-25T00:07:00.575Z,1.1
2023-02-25T00:08:00.562Z,1.1
2023-02-25T00:09:00.653Z,1.1
2023-02-25T00:10:00.559Z,1.1
2023-02-25T00:11:00.595Z,1.1
2023-02-25T00:12:00.591Z,1.1
2023-02-25T00:13:12.302Z,1.1
2023-02-25T00:14:00.788Z,1.1
2023-02-25T00:15:00.559Z,1.1
2023-02-25T00:16:00.561Z,1.1
2023-02-25T00:17:00.629Z,1.1
2023-02-25T00:18:00.602Z,1.1
2023-02-25T00:19:00.561Z,1.1
2023-02-25T00:20:00.570Z,1.1
2023-02-25T00:21:00.580Z,1.1
2023-02-25T00:22:00.572Z,1.1
2023-02-25T00:23:00.581Z,1.1
2023-02-25T00:24:15.307Z,1.1
2023-02-25T00:25:00.587Z,1.1
2023-02-25T00:26:00.568Z,1.1
2023-02-25T00:27:00.558Z,1.1
2023-02-25T00:28:00.593Z,1.1
2023-02-25T00:29:00.567Z,1.1
2023-02-25T00:30:00.602Z,1.1
2023-02-25T00:31:00.659Z,1.1
2023-02-25T00:32:00.729Z,1.1
2023-02-25T00:33:00.562Z,1.1
2023-02-25T00:34:00.588Z,1.1
2023-02-25T00:35:00.577Z,1.1
2023-02-25T00:36:00.602Z,1.1
2023-02-25T00:37:00.655Z,1.1
2023-02-25T00:38:14.963Z,1.1
2023-02-25T00:39:00.669Z,1.1
2023-02-25T00:40:00.600Z,1.1
2023-02-25T00:41:00.589Z,1.1
2023-02-25T00:42:00.601Z,1.1
2023-02-25T00:43:00.611Z,1.1
2023-02-25T00:44:00.622Z,1.1
2023-02-25T00:45:00.611Z,1.1
2023-02-25T00:46:00.714Z,1.1
2023-02-25T00:47:00.590Z,1.1
2023-02-25T00:48:00.625Z,1.1
2023-02-25T00:49:00.580Z,1.1
2023-02-25T00:50:00.579Z,1.1
2023-02-25T00:51:00.609Z,1.1
2023-02-25T00:52:00.611Z,1.1
2023-02-25T00:53:00.582Z,1.1
2023-02-25T00:54:00.644Z,1.1
2023-02-25T00:55:00.596Z,1.1
2023-02-25T00:56:00.616Z,1.1
2023-02-25T00:57:00.621Z,1.1
2023-02-25T00:58:00.599Z,1.1
2023-02-25T00:59:00.619Z,1.1
2023-02-25T01:00:00.594Z,1.1
2023-02-25T01:01:00.617Z,1.1
2023-02-25T01:02:00.717Z,1.1
2023-02-25T01:03:00.735Z,1.1
2023-02-25T01:04:00.645Z,1.1
2023-02-25T01:05:00.615Z,1.1
2023-02-25T01:06:00.630Z,1.1
2023-02-25T01:07:02.334Z,1.1
2023-02-25T01:08:00.626Z,1.1
2023-02-25T01:09:00.627Z,1.1
2023-02-25T01:10:00.608Z,1.1
2023-02-25T01:11:00.617Z,1.1
2023-02-25T01:12:00.673Z,1.1
2023-02-25T01:13:00.619Z,1.1
2023-02-25T01:14:00.730Z,1.1
2023-02-25T01:15:00.622Z,1.1
2023-02-25T01:16:00.739Z,1.1
2023-02-25T01:17:00.641Z,1.1
2023-02-25T01:18:00.621Z,1.1
2023-02-25T01:19:00.629Z,1.1
2023-02-25T01:20:00.611Z,1.1
2023-02-25T01:21:00.641Z,1.1
2023-02-25T01:22:00.640Z,1.1
2023-02-25T01:23:00.638Z,1.1
2023-02-25T01:24:00.641Z,1.1
2023-02-25T01:25:00.643Z,1.1
2023-02-25T01:26:00.639Z,1.1
2023-02-25T01:27:00.625Z,1.1
2023-02-25T01:28:00.670Z,1.1
2023-02-25T01:29:00.654Z,1.1
2023-02-25T01:30:00.628Z,1.1
2023-02-25T01:31:00.798Z,1.1
2023-02-25T01:32:00.757Z,1.1
2023-02-25T01:33:00.689Z,1.1
2023-02-25T01:34:00.641Z,1.1
2023-02-25T01:35:00.634Z,1.1
2023-02-25T01:36:00.652Z,1.1
2023-02-25T01:37:00.639Z,1.1
2023-02-25T01:38:00.634Z,1.1
2023-02-25T01:39:00.649Z,1.1
2023-02-25T01:40:00.633Z,1.1
2023-02-25T01:41:00.650Z,1.1
2023-02-25T01:42:00.642Z,1.1
2023-02-25T01:43:00.655Z,1.1
2023-02-25T01:44:00.671Z,1.1
2023-02-25T01:45:00.658Z,1.1
2023-02-25T01:46:00.642Z,1.1
2023-02-25T01:47:00.788Z,1.1
2023-02-25T01:48:00.677Z,1.1
2023-02-25T01:49:00.644Z,1.1
2023-02-25T01:50:00.644Z,1.1
2023-02-25T01:51:00.659Z,1.1
2023-02-25T01:52:00.684Z,1.1
2023-02-25T01:53:00.698Z,1.1
2023-02-25T01:54:00.661Z,1.1
2023-02-25T01:55:00.675Z,1.1
2023-02-25T01:56:00.654Z,1.1
2023-02-25T01:57:00.646Z,1.1
2023-02-25T01:58:00.682Z,1.1
2023-02-25T01:59:00.666Z,1.1
2023-02-25T02:00:00.672Z,1.1
2023-02-25T02:01:00.886Z,1.1
2023-02-25T02:02:00.659Z,1.1
2023-02-25T02:03:00.708Z,1.1
2023-02-25T02:04:00.663Z,1.1
2023-02-25T02:05:00.680Z,1.1
2023-02-25T02:06:00.661Z,1.1
2023-02-25T02:07:00.673Z,1.1
2023-02-25T02:08:00.701Z,1.1
2023-02-25T02:09:00.673Z,1.1
2023-02-25T02:10:00.693Z,1.1
2023-02-25T02:11:00.676Z,1.1
2023-02-25T02:12:00.670Z,1.1
2023-02-25T02:13:00.697Z,1.1
2023-02-25T02:14:00.688Z,1.1
2023-02-25T02:15:00.703Z,1.1
2023-02-25T02:16:00.735Z,1.1
2023-02-25T02:17:00.681Z,1.1
2023-02-25T02:18:00.700Z,1.1
2023-02-25T02:19:00.686Z,1.1
2023-02-25T02:20:00.679Z,1.1
2023-02-25T02:21:00.676Z,1.1
2023-02-25T02:22:00.696Z,1.1
2023-02-25T02:23:00.703Z,1.1
2023-02-25T02:24:00.689Z,1.1
2023-02-25T02:25:00.699Z,1.1
2023-02-25T02:26:00.696Z,1.1
2023-02-25T02:27:00.678Z,1.1
2023-02-25T02:28:00.703Z,1.1
2023-02-25T02:29:00.680Z,1.1
2023-02-25T02:30:00.718Z,1.1
2023-02-25T02:31:00.732Z,1.1
2023-02-25T02:32:00.766Z,1.1
2023-02-25T02:33:00.712Z,1.1
2023-02-25T02:34:00.692Z,1.1
2023-02-25T02:35:00.714Z,1.1
2023-02-25T02:36:00.710Z,1.1
2023-02-25T02:37:00.708Z,1.1
2023-02-25T02:38:00.722Z,1.1
2023-02-25T02:39:00.708Z,1.1
2023-02-25T02:40:00.715Z,1.1
2023-02-25T02:41:00.697Z,1.1
2023-02-25T02:42:00.717Z,1.1
2023-02-25T02:43:00.698Z,1.1
2023-02-25T02:44:00.701Z,1.1
2023-02-25T02:45:00.769Z,1.1
2023-02-25T02:46:00.768Z,1.1
2023-02-25T02:47:00.732Z,1.1
2023-02-25T02:48:00.722Z,1.1
2023-02-25T02:49:00.702Z,1.1
2023-02-25T02:50:00.719Z,1.1
2023-02-25T02:51:00.703Z,1.1
2023-02-25T02:52:00.730Z,1.1
2023-02-25T02:53:00.723Z,1.1
2023-02-25T02:54:00.718Z,1.1
2023-02-25T02:55:00.719Z,1.1
2023-02-25T02:56:00.709Z,1.1
2023-02-25T02:57:00.731Z,1.1
2023-02-25T02:58:00.701Z,1.1
2023-02-25T02:59:00.736Z,1.1
2023-02-25T03:00:00.734Z,1.1
2023-02-25T03:01:01.769Z,1.1
2023-02-25T03:02:01.712Z,1.1
2023-02-25T03:03:01.732Z,1.1
2023-02-25T03:04:01.740Z,1.1
2023-02-25T03:05:01.728Z,1.1
2023-02-25T03:06:01.734Z,1.1
2023-02-25T03:07:01.721Z,1.1
2023-02-25T03:08:01.741Z,1.1
2023-02-25T03:09:01.755Z,1.1
2023-02-25T03:10:01.801Z,1.1
2023-02-25T03:11:01.732Z,1.1
2023-02-25T03:12:01.733Z,1.1
2023-02-25T03:13:01.739Z,1.1
2023-02-25T03:14:01.737Z,1.1
2023-02-25T03:15:01.747Z,1.1
2023-02-25T03:16:01.779Z,1.1
2023-02-25T03:17:01.855Z,1.1
2023-02-25T03:18:01.756Z,1.1
2023-02-25T03:19:01.722Z,1.1
2023-02-25T03:20:01.772Z,1.1
2023-02-25T03:21:01.728Z,1.1
2023-02-25T03:22:01.735Z,1.1
2023-02-25T03:23:01.763Z,1.1
2023-02-25T03:24:01.747Z,1.1
2023-02-25T03:25:01.736Z,1.1
2023-02-25T03:26:01.742Z,1.1
2023-02-25T03:27:01.738Z,1.1
2023-02-25T03:28:01.767Z,1.1
2023-02-25T03:29:01.754Z,1.1
2023-02-25T03:30:01.779Z,1.1
2023-02-25T03:31:01.966Z,1.1
2023-02-25T03:32:01.924Z,1.1
2023-02-25T03:33:01.772Z,1.1
2023-02-25T03:34:01.766Z,1.1
2023-02-25T03:35:01.801Z,1.1
2023-02-25T03:36:01.755Z,1.1
2023-02-25T03:37:01.798Z,1.1
2023-02-25T03:38:01.777Z,1.1
2023-02-25T03:39:01.751Z,1.1
2023-02-25T03:40:01.785Z,1.1
2023-02-25T03:41:01.785Z,1.1
2023-02-25T03:42:01.811Z,1.1
2023-02-25T03:43:01.790Z,1.1
2023-02-25T03:44:01.754Z,1.1
2023-02-25T03:45:01.794Z,1.1
2023-02-25T03:46:01.889Z,1.1
2023-02-25T03:47:01.776Z,1.1
2023-02-25T03:48:01.792Z,1.1
2023-02-25T03:49:01.770Z,1.1
2023-02-25T03:50:01.895Z,1.1
2023-02-25T03:51:01.762Z,1.1
2023-02-25T03:52:01.809Z,1.1
2023-02-25T03:53:01.807Z,1.1
2023-02-25T03:54:01.776Z,1.1
2023-02-25T03:55:01.768Z,1.1
2023-02-25T03:56:01.776Z,1.1
2023-02-25T03:57:01.788Z,1.1
2023-02-25T03:58:01.785Z,1.1
2023-02-25T03:59:01.776Z,1.1
2023-02-25T04:00:01.857Z,1.1
2023-02-25T04:01:01.779Z,1.1
2023-02-25T04:02:01.882Z,1.1
2023-02-25T04:03:01.785Z,1.1
2023-02-25T04:04:01.774Z,1.1
2023-02-25T04:05:01.875Z,1.1
2023-02-25T04:06:01.774Z,1.1
2023-02-25T04:07:01.854Z,1.1
2023-02-25T04:08:01.807Z,1.1
2023-02-25T04:09:01.784Z,1.1
2023-02-25T04:10:01.816Z,1.1
2023-02-25T04:11:01.777Z,1.1
2023-02-25T04:12:01.832Z,1.1
2023-02-25T04:13:01.809Z,1.1
2023-02-25T04:14:01.796Z,1.1
2023-02-25T04:15:01.833Z,1.1
2023-02-25T04:16:01.895Z,1.1
2023-02-25T04:17:01.822Z,1.1
2023-02-25T04:18:01.808Z,1.1
2023-02-25T04:19:01.821Z,1.1
2023-02-25T04:20:01.830Z,1.1
2023-02-25T04:21:01.797Z,1.1
2023-02-25T04:22:01.824Z,1.1
2023-02-25T04:23:01.830Z,1.1
2023-02-25T04:24:01.845Z,1.1
2023-02-25T04:25:01.818Z,1.1
2023-02-25T04:26:01.822Z,1.1
2023-02-25T04:27:01.821Z,1.1
2023-02-25T04:28:01.820Z,1.1
2023-02-25T04:29:01.832Z,1.1
2023-02-25T04:30:01.830Z,1.1
2023-02-25T04:31:02.048Z,1.1
2023-02-25T04:32:02.002Z,1.1
2023-02-25T04:33:01.814Z,1.1
2023-02-25T04:34:01.829Z,1.1
2023-02-25T04:35:01.822Z,1.1
2023-02-25T04:36:01.810Z,1.1
2023-02-25T04:37:01.828Z,1.1
2023-02-25T04:38:01.841Z,1.1
2023-02-25T04:39:01.845Z,1.1
2023-02-25T04:40:01.872Z,1.1
2023-02-25T04:41:01.814Z,1.1
2023-02-25T04:42:01.848Z,1.1
2023-02-25T04:43:01.846Z,1.1
2023-02-25T04:44:01.848Z,1.1
2023-02-25T04:45:01.858Z,1.1
2023-02-25T04:46:01.877Z,1.1
2023-02-25T04:47:01.844Z,1.1
2023-02-25T04:48:01.833Z,1.1
2023-02-25T04:49:01.872Z,1.1
2023-02-25T04:50:01.879Z,1.1
2023-02-25T04:51:01.843Z,1.1
2023-02-25T04:52:01.827Z,1.1
2023-02-25T04:53:01.846Z,1.1
2023-02-25T04:54:01.818Z,1.1
2023-02-25T04:55:01.872Z,1.1
2023-02-25T04:56:01.839Z,1.1
2023-02-25T04:57:01.821Z,1.1
2023-02-25T04:58:01.853Z,1.1
2023-02-25T04:59:01.853Z,1.1
2023-02-25T05:00:01.892Z,1.1
2023-02-25T05:01:01.853Z,1.1
2023-02-25T05:02:01.913Z,1.1
2023-02-25T05:03:01.877Z,1.1
2023-02-25T05:04:01.859Z,1.1
2023-02-25T05:05:01.987Z,1.1
2023-02-25T05:06:01.883Z,1.1
2023-02-25T05:07:01.855Z,1.1
2023-02-25T05:08:01.885Z,1.1
2023-02-25T05:09:01.863Z,1.1
2023-02-25T05:10:01.940Z,1.1
2023-02-25T05:11:01.918Z,1.1
2023-02-25T05:12:01.869Z,1.1
2023-02-25T05:13:02.002Z,1.1
2023-02-25T05:14:01.870Z,1.1
2023-02-25T05:15:01.873Z,1.1
2023-02-25T05:16:01.903Z,1.1
2023-02-25T05:17:01.854Z,1.1
2023-02-25T05:18:00.574Z,1.1
2023-02-25T05:19:00.577Z,1.1
2023-02-25T05:20:00.662Z,1.1
2023-02-25T05:21:00.585Z,1.1
2023-02-25T05:22:00.576Z,1.1
2023-02-25T05:23:00.571Z,1.1
2023-02-25T05:24:00.587Z,1.1
2023-02-25T05:25:00.582Z,1.1
2023-02-25T05:26:00.595Z,1.1
2023-02-25T05:27:00.591Z,1.1
2023-02-25T05:28:00.597Z,1.1
2023-02-25T05:29:00.580Z,1.1
2023-02-25T05:30:00.691Z,1.1
2023-02-25T05:31:00.636Z,1.1
2023-02-25T05:32:00.751Z,1.1
2023-02-25T05:33:00.692Z,1.1
2023-02-25T05:34:00.599Z,1.1
2023-02-25T05:35:00.577Z,1.1
2023-02-25T05:36:00.612Z,1.1
2023-02-25T05:37:00.578Z,1.1
2023-02-25T05:38:00.596Z,1.1
2023-02-25T05:39:00.601Z,1.1
2023-02-25T05:40:00.604Z,1.1
2023-02-25T05:41:00.608Z,1.1
2023-02-25T05:42:00.573Z,1.1
2023-02-25T05:43:00.603Z,1.1
2023-02-25T05:44:00.606Z,1.1
2023-02-25T05:45:00.609Z,1.1
2023-02-25T05:46:00.622Z,1.1
2023-02-25T05:47:00.655Z,1.1
2023-02-25T05:48:00.633Z,1.1
2023-02-25T05:49:00.605Z,1.1
2023-02-25T05:50:00.654Z,1.1
2023-02-25T05:51:00.619Z,1.1
2023-02-25T05:52:00.618Z,1.3
2023-02-25T05:53:00.606Z,1.6
2023-02-25T05:54:00.612Z,1.7
2023-02-25T05:55:00.600Z,1.9
2023-02-25T05:56:00.640Z,2
2023-02-25T05:57:00.594Z,2.4
2023-02-25T05:58:00.605Z,3.2
2023-02-25T05:59:00.622Z,4.1
2023-02-25T06:00:00.625Z,5.2
2023-02-25T06:01:00.618Z,6.3
2023-02-25T06:02:00.622Z,7.6
2023-02-25T06:03:00.678Z,9.6
2023-02-25T06:04:00.636Z,11.5
2023-02-25T06:05:00.839Z,13.6
2023-02-25T06:06:00.625Z,15.7
2023-02-25T06:07:00.611Z,17.2
2023-02-25T06:08:00.620Z,20.4
2023-02-25T06:09:00.609Z,24.7
2023-02-25T06:10:00.626Z,28.1
2023-02-25T06:11:00.621Z,33.6
2023-02-25T06:12:00.620Z,39.8
2023-02-25T06:13:00.608Z,45.9
2023-02-25T06:14:00.669Z,52.4
2023-02-25T06:15:00.630Z,58.3
2023-02-25T06:16:00.719Z,64.2
2023-02-25T06:17:00.636Z,69
2023-02-25T06:18:00.614Z,73.2
2023-02-25T06:19:00.652Z,75.9
2023-02-25T06:20:00.632Z,77.7
2023-02-25T06:21:00.695Z,80.5
2023-02-25T06:22:00.652Z,78.6
2023-02-25T06:23:00.645Z,69.8
2023-02-25T06:24:00.631Z,87.6
2023-02-25T06:25:00.671Z,104.8
2023-02-25T06:26:00.653Z,113.9
2023-02-25T06:27:00.639Z,116.7
2023-02-25T06:28:00.634Z,118.1
2023-02-25T06:29:00.637Z,118.1
2023-02-25T06:30:00.652Z,126.9
2023-02-25T06:31:00.784Z,130
2023-02-25T06:32:00.752Z,141.3
2023-02-25T06:33:00.664Z,146.5
2023-02-25T06:34:00.642Z,150
2023-02-25T06:35:00.684Z,169.1
2023-02-25T06:36:00.658Z,183.8
2023-02-25T06:37:00.659Z,190.5
2023-02-25T06:38:00.643Z,204.7
2023-02-25T06:39:00.660Z,219.9
2023-02-25T06:40:00.648Z,228
2023-02-25T06:41:00.683Z,247.9
2023-02-25T06:42:00.677Z,263.2
2023-02-25T06:43:00.636Z,279.4
2023-02-25T06:44:00.641Z,242
2023-02-25T06:45:00.656Z,212.2
2023-02-25T06:46:00.731Z,179.5
2023-02-25T06:47:00.638Z,175.2
2023-02-25T06:48:00.648Z,214.8
2023-02-25T06:49:00.640Z,217.3
2023-02-25T06:50:02.546Z,244.9
2023-02-25T06:51:00.672Z,300.2
2023-02-25T06:52:00.670Z,326.4
2023-02-25T06:53:00.709Z,326.4
2023-02-25T06:54:00.686Z,359.1
2023-02-25T06:55:00.658Z,440.1
2023-02-25T06:56:00.707Z,445.4
2023-02-25T06:57:00.663Z,414.5
2023-02-25T06:58:00.670Z,399.9
2023-02-25T06:59:00.684Z,461.7
2023-02-25T07:00:00.800Z,520.3
2023-02-25T07:01:00.813Z,539.3
2023-02-25T07:02:00.687Z,526.6
2023-02-25T07:03:00.677Z,508
2023-02-25T07:04:00.821Z,484.3
2023-02-25T07:05:00.675Z,502
2023-02-25T07:06:00.696Z,539.3
2023-02-25T07:07:00.702Z,600.6
2023-02-25T07:08:00.689Z,508
2023-02-25T07:09:00.688Z,472.9
2023-02-25T07:10:00.691Z,434.9
2023-02-25T07:11:00.671Z,461.7
2023-02-25T07:12:00.687Z,514.1
2023-02-25T07:13:00.684Z,552.4
2023-02-25T07:14:00.668Z,668.8
2023-02-25T07:15:00.687Z,718.6
2023-02-25T07:16:00.751Z,744.8
2023-02-25T07:17:00.698Z,727.2
2023-02-25T07:18:00.667Z,685.1
2023-02-25T07:19:00.686Z,718.6
2023-02-25T07:20:00.680Z,819.6
2023-02-25T07:21:00.710Z,819.6
2023-02-25T07:22:00.696Z,839.5
2023-02-25T07:23:00.732Z,800.3
2023-02-25T07:24:00.692Z,859.8
2023-02-25T07:25:00.804Z,912.8
2023-02-25T07:26:00.682Z,849.6
2023-02-25T07:27:00.719Z,912.8
2023-02-25T07:28:00.703Z,1118.6
2023-02-25T07:29:00.683Z,1230.8
2023-02-25T07:30:00.718Z,1275.8
2023-02-25T07:31:00.788Z,1275.8
2023-02-25T07:32:00.911Z,1230.8
2023-02-25T07:33:00.753Z,1159.4
2023-02-25T07:34:00.693Z,1245.7
2023-02-25T07:35:00.716Z,1403.9
2023-02-25T07:36:00.725Z,1403.9
2023-02-25T07:37:00.734Z,1275.8
2023-02-25T07:38:00.722Z,1201.7
2023-02-25T07:39:00.717Z,1187.5
2023-02-25T07:40:00.708Z,1159.4
2023-02-25T07:41:00.711Z,1132
2023-02-25T07:42:00.748Z,1066.3
2023-02-25T07:43:00.700Z,1004.4
2023-02-25T07:44:00.709Z,1004.4
2023-02-25T07:45:02.311Z,957.5
2023-02-25T07:46:00.810Z,912.8
2023-02-25T07:47:00.722Z,912.8
2023-02-25T07:48:00.708Z,957.5
2023-02-25T07:49:00.725Z,1041.1
2023-02-25T07:50:00.718Z,1079.1
2023-02-25T07:51:00.741Z,1132
2023-02-25T07:52:00.743Z,1173.3
2023-02-25T07:53:00.735Z,1187.5
2023-02-25T07:54:00.730Z,1145.6
2023-02-25T07:55:00.719Z,1105.3
2023-02-25T07:56:00.747Z,1105.3
2023-02-25T07:57:00.773Z,1173.3
2023-02-25T07:58:00.731Z,1245.7
2023-02-25T07:59:00.721Z,1322.4
2023-02-25T08:00:00.812Z,1508.3
2023-02-25T08:01:00.741Z,1582.3
2023-02-25T08:02:00.754Z,1544.8
2023-02-25T08:03:00.766Z,1563.4
2023-02-25T08:04:00.771Z,1659.7
2023-02-25T08:05:00.754Z,1640
2023-02-25T08:06:00.756Z,1699.9
2023-02-25T08:07:00.768Z,1826.4
2023-02-25T08:08:00.757Z,1848.4
2023-02-25T08:09:00.733Z,1870.6
2023-02-25T08:10:00.734Z,1826.4
2023-02-25T08:11:00.758Z,1870.6
2023-02-25T08:12:00.762Z,2083.2
2023-02-25T08:13:00.750Z,2265.1
2023-02-25T08:14:00.774Z,2265.1
2023-02-25T08:15:00.788Z,2265.1
2023-02-25T08:16:00.800Z,2433.5
2023-02-25T08:17:00.739Z,2492.4
2023-02-25T08:18:00.756Z,2404.6
2023-02-25T08:19:00.758Z,2265.1
2023-02-25T08:20:00.813Z,2292.3
2023-02-25T08:21:02.789Z,2292.3
2023-02-25T08:22:00.744Z,2265.1
2023-02-25T08:23:00.772Z,2159.2
2023-02-25T08:24:00.757Z,2058.4
2023-02-25T08:25:00.767Z,2133.6
2023-02-25T08:26:00.834Z,2211.5
2023-02-25T08:27:00.759Z,1962.2
2023-02-25T08:28:00.752Z,1826.4
2023-02-25T08:29:00.844Z,1915.9
2023-02-25T08:30:00.828Z,2159.2
2023-02-25T08:31:00.840Z,2133.6
2023-02-25T08:32:00.901Z,2492.4
2023-02-25T08:33:00.863Z,2646
2023-02-25T08:34:00.817Z,2462.8
2023-02-25T08:35:00.825Z,2133.6
2023-02-25T08:36:00.774Z,1893.1
2023-02-25T08:37:00.775Z,1659.7
2023-02-25T08:38:00.792Z,1601.3
2023-02-25T08:39:00.791Z,1938.9
2023-02-25T08:40:00.812Z,2108.2
2023-02-25T08:41:00.820Z,2211.5
2023-02-25T08:42:00.776Z,2376
2023-02-25T08:43:01.872Z,2404.6
2023-02-25T08:44:00.872Z,2462.8
2023-02-25T08:45:00.800Z,2492.4
2023-02-25T08:46:01.469Z,2552.8
2023-02-25T08:47:00.913Z,2552.8
2023-02-25T08:48:00.798Z,2522.4
2023-02-25T08:49:00.800Z,2710.1
2023-02-25T08:50:00.827Z,3091.1
2023-02-25T08:51:00.790Z,3281.6
2023-02-25T08:52:00.771Z,3204.1
2023-02-25T08:53:00.810Z,3321.1
2023-02-25T08:54:00.811Z,3525.6
2023-02-25T08:55:00.822Z,4320.5
2023-02-25T08:56:00.775Z,3926.3
2023-02-25T08:57:00.790Z,3833.5
2023-02-25T08:58:00.789Z,3525.6
2023-02-25T08:59:00.799Z,3483.7
2023-02-25T09:00:00.984Z,3611.1
2023-02-25T09:01:00.858Z,3611.1
2023-02-25T09:02:00.793Z,3742.9
2023-02-25T09:03:00.799Z,3698.5
2023-02-25T09:04:00.808Z,4218.4
2023-02-25T09:05:00.784Z,3788
2023-02-25T09:06:00.793Z,4642
2023-02-25T09:07:00.786Z,3091.1
2023-02-25T09:08:00.827Z,4021.3
2023-02-25T09:09:00.839Z,3833.5
2023-02-25T09:10:00.885Z,3833.5
2023-02-25T09:11:00.794Z,3698.5
2023-02-25T09:12:00.797Z,3442.3
2023-02-25T09:13:00.820Z,3401.4
2023-02-25T09:14:00.824Z,3361
2023-02-25T09:15:00.830Z,3281.6
2023-02-25T09:16:00.878Z,3401.4
2023-02-25T09:17:00.814Z,3483.7
2023-02-25T09:18:00.798Z,3654.5
2023-02-25T09:19:00.832Z,3926.3
2023-02-25T09:20:00.854Z,2319.9
2023-02-25T09:21:00.811Z,3401.4
2023-02-25T09:22:00.798Z,3483.7
2023-02-25T09:23:00.812Z,2319.9
2023-02-25T09:24:00.839Z,2185.2
2023-02-25T09:25:00.810Z,3018
2023-02-25T09:26:00.829Z,3568
2023-02-25T09:27:00.805Z,2982.2
2023-02-25T09:28:00.808Z,3401.4
2023-02-25T09:29:00.838Z,2677.9
2023-02-25T09:30:01.033Z,2809
2023-02-25T09:31:00.858Z,3054.3
2023-02-25T09:32:00.904Z,3054.3
2023-02-25T09:33:00.956Z,2238.1
2023-02-25T09:34:00.851Z,2347.8
2023-02-25T09:35:01.521Z,3321.1
2023-02-25T09:36:00.814Z,2677.9
2023-02-25T09:37:00.820Z,3321.1
2023-02-25T09:38:00.841Z,2982.2
2023-02-25T09:39:00.961Z,3321.1
2023-02-25T09:40:01.059Z,3401.4
2023-02-25T09:41:00.861Z,3361
2023-02-25T09:42:00.829Z,3483.7
2023-02-25T09:43:00.822Z,3401.4
2023-02-25T09:44:00.867Z,3128.2
2023-02-25T09:45:00.869Z,3361
2023-02-25T09:46:00.895Z,2911.7
2023-02-25T09:47:00.830Z,2877.1
2023-02-25T09:48:00.976Z,2877.1
2023-02-25T09:49:00.853Z,2775.6
2023-02-25T09:50:00.873Z,2775.6
2023-02-25T09:51:00.831Z,2809
2023-02-25T09:52:00.879Z,2877.1
2023-02-25T09:53:00.849Z,2982.2
2023-02-25T09:54:00.883Z,3128.2
2023-02-25T09:55:00.886Z,2946.7
2023-02-25T09:56:00.846Z,3165.8
2023-02-25T09:57:00.856Z,3525.6
2023-02-25T09:58:00.859Z,3788
2023-02-25T09:59:00.863Z,4269.1
2023-02-25T10:00:00.869Z,4069.8
2023-02-25T10:01:00.845Z,3926.3
2023-02-25T10:02:00.891Z,3568
2023-02-25T10:03:01.018Z,3321.1
2023-02-25T10:04:00.885Z,3054.3
2023-02-25T10:05:00.973Z,2809
2023-02-25T10:06:00.887Z,2583.5
2023-02-25T10:07:00.857Z,2583.5
2023-02-25T10:08:00.858Z,2552.8
2023-02-25T10:09:00.874Z,2646
2023-02-25T10:10:00.903Z,2614.6
2023-02-25T10:11:00.873Z,2677.9
2023-02-25T10:12:00.874Z,2982.2
2023-02-25T10:13:00.893Z,3525.6
2023-02-25T10:14:00.863Z,3742.9
2023-02-25T10:15:00.932Z,3568
2023-02-25T10:16:01.940Z,3611.1
2023-02-25T10:17:00.900Z,3879.6
2023-02-25T10:18:00.884Z,3698.5
2023-02-25T10:19:00.863Z,3973.5
2023-02-25T10:20:00.982Z,3525.6
2023-02-25T10:21:00.906Z,3018
2023-02-25T10:22:00.909Z,2710.1
2023-02-25T10:23:00.876Z,2742.6
2023-02-25T10:24:00.913Z,2583.5
2023-02-25T10:25:00.897Z,2492.4
2023-02-25T10:26:00.914Z,2347.8
2023-02-25T10:27:00.901Z,2376
2023-02-25T10:28:00.917Z,2376
2023-02-25T10:29:00.888Z,2319.9
2023-02-25T10:30:00.908Z,2292.3
2023-02-25T10:31:00.998Z,2292.3
2023-02-25T10:32:01.114Z,2376
2023-02-25T10:33:00.883Z,2677.9
2023-02-25T10:34:03.074Z,3442.3
2023-02-25T10:35:00.904Z,3204.1
2023-02-25T10:36:01.794Z,4218.4
2023-02-25T10:37:01.028Z,4754.3
2023-02-25T10:38:00.884Z,3611.1
2023-02-25T10:39:00.895Z,2982.2
2023-02-25T10:40:02.886Z,3401.4
2023-02-25T10:41:00.896Z,4069.8
2023-02-25T10:42:00.894Z,4069.8
2023-02-25T10:43:00.897Z,4069.8
2023-02-25T10:44:00.900Z,3242.6
2023-02-25T10:45:00.889Z,3742.9
2023-02-25T10:46:00.968Z,4021.3
2023-02-25T10:47:00.927Z,4218.4
2023-02-25T10:48:00.909Z,4218.4
2023-02-25T10:49:00.894Z,4168.3
2023-02-25T10:50:00.979Z,4168.3
2023-02-25T10:51:00.919Z,4320.5
2023-02-25T10:52:00.939Z,2946.7
2023-02-25T10:53:00.926Z,4069.8
2023-02-25T10:54:00.924Z,5688.3
2023-02-25T10:55:00.912Z,6487.9
2023-02-25T10:56:00.906Z,6566.3
2023-02-25T10:57:00.936Z,6259.4
2023-02-25T10:58:00.904Z,6185
2023-02-25T10:59:00.921Z,6111.5
2023-02-25T11:00:00.969Z,4642
2023-02-25T11:01:01.028Z,3926.3
2023-02-25T11:02:01.038Z,3742.9
2023-02-25T11:03:01.003Z,3442.3
2023-02-25T11:04:00.912Z,2982.2
2023-02-25T11:05:00.967Z,2677.9
2023-02-25T11:06:00.932Z,2433.5
2023-02-25T11:07:00.953Z,2433.5
2023-02-25T11:08:00.945Z,2646
2023-02-25T11:09:00.949Z,2911.7
2023-02-25T11:10:00.946Z,3242.6
2023-02-25T11:11:00.940Z,3568
2023-02-25T11:12:00.942Z,3742.9
2023-02-25T11:13:00.925Z,3879.6
2023-02-25T11:14:00.953Z,3926.3
2023-02-25T11:15:00.937Z,3833.5
2023-02-25T11:16:00.993Z,3833.5
2023-02-25T11:17:00.961Z,3879.6
2023-02-25T11:18:00.910Z,5487.9
2023-02-25T11:19:00.867Z,4320.5
2023-02-25T11:20:00.880Z,4754.3
2023-02-25T11:21:00.830Z,4532.1
2023-02-25T11:22:00.812Z,5107.8
2023-02-25T11:23:00.768Z,4987.1
2023-02-25T11:24:00.737Z,4987.1
2023-02-25T11:25:00.762Z,4987.1
2023-02-25T11:26:00.671Z,4869.3
2023-02-25T11:27:00.640Z,4869.3
2023-02-25T11:28:00.613Z,5107.8
2023-02-25T11:29:00.599Z,5107.8
2023-02-25T11:30:00.595Z,4869.3
2023-02-25T11:31:00.623Z,4869.3
2023-02-25T11:32:00.666Z,5294.6
2023-02-25T11:33:00.517Z,5620.7
2023-02-25T11:34:00.535Z,5688.3
2023-02-25T11:35:00.551Z,6185
2023-02-25T11:36:00.531Z,6111.5
2023-02-25T11:37:00.525Z,5896.2
2023-02-25T11:38:00.540Z,5688.3
2023-02-25T11:39:00.593Z,5896.2
2023-02-25T11:40:00.600Z,5896.2
2023-02-25T11:41:00.571Z,7312.1
2023-02-25T11:42:00.537Z,7670.6
2023-02-25T11:43:00.519Z,5896.2
2023-02-25T11:44:02.590Z,5294.6
2023-02-25T11:45:00.592Z,5688.3
2023-02-25T11:46:00.636Z,5756.7
2023-02-25T11:47:00.532Z,6259.4
2023-02-25T11:48:00.524Z,6806
2023-02-25T11:49:00.542Z,5358.2
2023-02-25T11:50:00.554Z,6566.3
2023-02-25T11:51:00.531Z,4642
2023-02-25T11:52:00.548Z,3788
2023-02-25T11:53:00.535Z,4697.8
2023-02-25T11:54:00.547Z,2292.3
2023-02-25T11:55:00.590Z,2982.2
2023-02-25T11:56:00.598Z,2775.6
2023-02-25T11:57:00.557Z,2404.6
2023-02-25T11:58:00.541Z,2462.8
2023-02-25T11:59:00.556Z,2946.7
2023-02-25T12:00:00.576Z,2946.7
2023-02-25T12:01:00.555Z,3165.8
2023-02-25T12:02:00.579Z,3973.5
2023-02-25T12:03:00.594Z,4697.8
2023-02-25T12:04:01.243Z,7139.4
2023-02-25T12:05:00.546Z,7856.2
2023-02-25T12:06:00.712Z,7054.5
2023-02-25T12:07:00.559Z,4869.3
2023-02-25T12:08:12.837Z,4118.8
2023-02-25T12:09:00.542Z,3973.5
2023-02-25T12:10:00.550Z,4069.8
2023-02-25T12:11:00.700Z,4168.3
2023-02-25T12:12:00.574Z,4320.5
2023-02-25T12:13:00.547Z,4269.1
2023-02-25T12:14:00.578Z,5358.2
2023-02-25T12:15:00.577Z,3483.7
2023-02-25T12:16:00.593Z,2877.1
2023-02-25T12:17:00.578Z,2552.8
2023-02-25T12:18:00.552Z,2522.4
2023-02-25T12:19:02.569Z,2742.6
2023-02-25T12:20:00.591Z,2911.7
2023-02-25T12:21:00.576Z,2677.9
2023-02-25T12:22:00.554Z,2552.8
2023-02-25T12:23:00.560Z,2710.1
2023-02-25T12:24:00.576Z,2842.8
2023-02-25T12:25:00.586Z,2842.8
2023-02-25T12:26:00.580Z,2710.1
2023-02-25T12:27:00.570Z,3018
2023-02-25T12:28:00.568Z,2911.7
2023-02-25T12:29:00.596Z,2946.7
2023-02-25T12:30:00.638Z,3321.1
2023-02-25T12:31:00.612Z,3742.9
2023-02-25T12:32:00.750Z,3742.9
2023-02-25T12:33:00.570Z,3926.3
2023-02-25T12:34:00.573Z,4218.4
2023-02-25T12:35:00.595Z,3879.6
2023-02-25T12:36:00.591Z,4987.1
2023-02-25T12:37:00.580Z,3698.5
2023-02-25T12:38:00.569Z,2742.6
2023-02-25T12:39:00.593Z,2614.6
2023-02-25T12:40:00.607Z,3654.5
2023-02-25T12:41:00.591Z,3361
2023-02-25T12:42:00.609Z,3833.5
2023-02-25T12:43:00.586Z,5896.2
2023-02-25T12:44:00.618Z,5896.2
2023-02-25T12:45:00.598Z,5756.7
2023-02-25T12:46:00.609Z,5358.2
2023-02-25T12:47:00.581Z,6334.7
2023-02-25T12:48:00.628Z,5107.8
2023-02-25T12:49:00.619Z,5358.2
2023-02-25T12:50:00.602Z,6334.7
2023-02-25T12:51:00.587Z,6334.7
2023-02-25T12:52:00.586Z,6410.8
2023-02-25T12:53:00.634Z,6566.3
2023-02-25T12:54:00.581Z,6410.8
2023-02-25T12:55:00.618Z,5358.2
2023-02-25T12:56:00.598Z,5358.2
2023-02-25T12:57:00.589Z,7054.5
2023-02-25T12:58:00.609Z,6185
2023-02-25T12:59:00.623Z,5487.9
2023-02-25T13:00:00.718Z,7489.4
2023-02-25T13:01:00.726Z,5620.7
2023-02-25T13:02:00.591Z,5553.9
2023-02-25T13:03:00.625Z,5231.6
2023-02-25T13:04:00.735Z,4927.9
2023-02-25T13:05:00.632Z,4532.1
2023-02-25T13:06:00.597Z,4425
2023-02-25T13:07:00.611Z,4532.1
2023-02-25T13:08:00.634Z,5107.8